This is the latest recevied weather packets stored in our database for station/object SM6KNE. If no packets are shown the sender has not sent any weather packets the latest 10 day(s).
| Time | Temp. | Humidity | Pressure | Rain* | Wind** | Luminosity | Snow |
|---|---|---|---|---|---|---|---|
| 1777543524 | 15.56° C | 65% | 1030.2 hPa | 0 mm | - | - | - |
| 1777541126 | 13.89° C | 71% | 1030.2 hPa | 0 mm | - | - | - |
| 1777540543 | 13.89° C | 72% | 1030.2 hPa | 0 mm | - | - | - |
| 1777538123 | 12.78° C | 76% | 1030.2 hPa | 0 mm | - | - | - |
| 1777535123 | 11.11° C | 80% | 1030.2 hPa | 0 mm | - | - | - |
| 1777533323 | 10.56° C | 83% | 1030.2 hPa | 0 mm | - | - | - |
| 1777529115 | 7.22° C | 84% | 1030.2 hPa | 0 mm | - | - | - |
| 1777526123 | 5° C | 82% | 1030.2 hPa | 0 mm | - | - | - |
| 1777521923 | 3.89° C | 79% | 1030.2 hPa | 0 mm | - | - | - |
| 1777521323 | 3.33° C | 79% | 1030.2 hPa | 0 mm | - | - | - |
| 1777514123 | 3.89° C | 78% | 1030.2 hPa | 0 mm | - | - | - |
| 1777512923 | 3.89° C | 77% | 1030.2 hPa | 0 mm | - | - | - |
| 1777505123 | 5° C | 72% | 1031.2 hPa | 0 mm | - | - | - |
| 1777503325 | 5.56° C | 69% | 1031.2 hPa | 0 mm | - | - | - |
| 1777502123 | 5.56° C | 68% | 1031.2 hPa | 0 mm | - | - | - |
| 1777497323 | 7.22° C | 66% | 1031.2 hPa | 0 mm | - | - | - |
| 1777496744 | 7.22° C | 65% | 1031.2 hPa | 0 mm | - | - | - |
| 1777492524 | 8.33° C | 62% | 1030.8 hPa | - | - | - | - |
| 1777488323 | 10.56° C | 57% | 1030.2 hPa | - | - | - | - |
| 1777483523 | 14.44° C | 44% | 1030.2 hPa | - | - | - | - |
| 1777482923 | 15° C | 41% | 1030.2 hPa | - | - | - | - |
| 1777482341 | 15.56° C | 39% | 1030.2 hPa | - | - | - | - |
| 1777481724 | 17.22° C | 37% | 1030.2 hPa | - | - | - | - |
| 1777473327 | 19.44° C | 31% | 1030.2 hPa | - | - | - | - |
| 1777464924 | 25° C | 27% | 1030.2 hPa | - | - | - | - |
* Rain latest 24 hours (hover to see other rain measurements)
** Current wind speed in m/s (hover to see current wind gust speed)